sensor_id;sensor_type;location;lat;lon;timestamp;temperature;humidity
5118;DHT22;2578;51.622;7.046;2023-09-19T00:01:28;16.00;1.00
5118;DHT22;2578;51.622;7.046;2023-09-19T00:03:56;16.00;1.00
5118;DHT22;2578;51.622;7.046;2023-09-19T00:06:23;15.90;1.00
5118;DHT22;2578;51.622;7.046;2023-09-19T00:08:52;15.90;1.00
5118;DHT22;2578;51.622;7.046;2023-09-19T00:11:18;15.80;1.00
5118;DHT22;2578;51.622;7.046;2023-09-19T00:13:43;15.80;1.00
5118;DHT22;2578;51.622;7.046;2023-09-19T00:16:10;15.70;1.00
5118;DHT22;2578;51.622;7.046;2023-09-19T00:18:37;15.70;1.00
5118;DHT22;2578;51.622;7.046;2023-09-19T00:21:03;15.70;1.00
5118;DHT22;2578;51.622;7.046;2023-09-19T00:23:30;15.70;1.00
5118;DHT22;2578;51.622;7.046;2023-09-19T00:26:00;15.70;1.00
5118;DHT22;2578;51.622;7.046;2023-09-19T00:28:29;15.80;1.00
5118;DHT22;2578;51.622;7.046;2023-09-19T00:30:55;15.80;1.00
5118;DHT22;2578;51.622;7.046;2023-09-19T00:33:21;15.70;1.00
5118;DHT22;2578;51.622;7.046;2023-09-19T00:35:51;15.70;1.00
5118;DHT22;2578;51.622;7.046;2023-09-19T00:38:18;15.80;1.00
5118;DHT22;2578;51.622;7.046;2023-09-19T00:40:47;15.80;1.00
5118;DHT22;2578;51.622;7.046;2023-09-19T00:43:12;15.70;1.00
5118;DHT22;2578;51.622;7.046;2023-09-19T00:45:39;15.70;1.00
5118;DHT22;2578;51.622;7.046;2023-09-19T00:48:08;15.60;1.00
5118;DHT22;2578;51.622;7.046;2023-09-19T00:50:35;15.60;1.00
5118;DHT22;2578;51.622;7.046;2023-09-19T00:53:02;15.60;1.00
5118;DHT22;2578;51.622;7.046;2023-09-19T00:55:34;15.70;1.00
5118;DHT22;2578;51.622;7.046;2023-09-19T00:58:00;15.60;1.00
5118;DHT22;2578;51.622;7.046;2023-09-19T01:00:26;15.60;1.00
5118;DHT22;2578;51.622;7.046;2023-09-19T01:02:52;15.40;1.00
5118;DHT22;2578;51.622;7.046;2023-09-19T01:05:18;15.40;1.00
5118;DHT22;2578;51.622;7.046;2023-09-19T01:07:44;15.40;1.00
5118;DHT22;2578;51.622;7.046;2023-09-19T01:10:14;15.30;1.00
5118;DHT22;2578;51.622;7.046;2023-09-19T01:18:16;15.30;1.00
5118;DHT22;2578;51.622;7.046;2023-09-19T01:20:57;15.30;1.00
5118;DHT22;2578;51.622;7.046;2023-09-19T01:26:33;15.20;1.00
5118;DHT22;2578;51.622;7.046;2023-09-19T01:29:49;15.10;1.00
5118;DHT22;2578;51.622;7.046;2023-09-19T01:32:19;15.10;1.00
5118;DHT22;2578;51.622;7.046;2023-09-19T01:34:54;15.10;1.00
5118;DHT22;2578;51.622;7.046;2023-09-19T01:37:22;15.00;1.00
5118;DHT22;2578;51.622;7.046;2023-09-19T01:42:41;15.00;1.00
5118;DHT22;2578;51.622;7.046;2023-09-19T01:51:05;15.00;1.00
5118;DHT22;2578;51.622;7.046;2023-09-19T01:53:56;14.90;1.00
5118;DHT22;2578;51.622;7.046;2023-09-19T01:59:15;14.90;1.00
5118;DHT22;2578;51.622;7.046;2023-09-19T02:01:42;14.80;1.00
5118;DHT22;2578;51.622;7.046;2023-09-19T02:04:10;14.80;1.00
5118;DHT22;2578;51.622;7.046;2023-09-19T02:06:40;14.80;38.50
5118;DHT22;2578;51.622;7.046;2023-09-19T02:09:06;14.80;1.00
5118;DHT22;2578;51.622;7.046;2023-09-19T02:11:32;14.80;1.00
5118;DHT22;2578;51.622;7.046;2023-09-19T02:13:58;14.80;1.00
5118;DHT22;2578;51.622;7.046;2023-09-19T02:16:24;14.80;1.00
5118;DHT22;2578;51.622;7.046;2023-09-19T02:18:50;14.80;1.00
5118;DHT22;2578;51.622;7.046;2023-09-19T02:21:17;14.70;1.00
5118;DHT22;2578;51.622;7.046;2023-09-19T02:23:44;14.70;1.00
5118;DHT22;2578;51.622;7.046;2023-09-19T02:26:10;14.70;1.00
5118;DHT22;2578;51.622;7.046;2023-09-19T02:28:37;14.70;1.00
5118;DHT22;2578;51.622;7.046;2023-09-19T02:31:03;14.60;1.00
5118;DHT22;2578;51.622;7.046;2023-09-19T02:33:31;14.60;1.00
5118;DHT22;2578;51.622;7.046;2023-09-19T02:35:58;14.60;1.00
5118;DHT22;2578;51.622;7.046;2023-09-19T02:38:25;14.50;1.00
5118;DHT22;2578;51.622;7.046;2023-09-19T02:40:52;14.50;1.00
5118;DHT22;2578;51.622;7.046;2023-09-19T02:43:18;14.50;1.00
5118;DHT22;2578;51.622;7.046;2023-09-19T02:45:45;14.40;1.00
5118;DHT22;2578;51.622;7.046;2023-09-19T02:48:12;14.40;1.00
5118;DHT22;2578;51.622;7.046;2023-09-19T02:50:37;14.40;1.00
5118;DHT22;2578;51.622;7.046;2023-09-19T02:53:05;14.40;1.00
5118;DHT22;2578;51.622;7.046;2023-09-19T02:55:32;14.40;1.00
5118;DHT22;2578;51.622;7.046;2023-09-19T02:57:58;14.50;99.90
5118;DHT22;2578;51.622;7.046;2023-09-19T03:00:23;14.50;99.90
5118;DHT22;2578;51.622;7.046;2023-09-19T03:02:52;14.50;99.90
5118;DHT22;2578;51.622;7.046;2023-09-19T03:05:18;14.30;99.90
5118;DHT22;2578;51.622;7.046;2023-09-19T03:07:44;14.60;99.90
5118;DHT22;2578;51.622;7.046;2023-09-19T03:10:12;14.60;99.90
5118;DHT22;2578;51.622;7.046;2023-09-19T03:12:40;14.70;99.90
5118;DHT22;2578;51.622;7.046;2023-09-19T03:15:06;14.60;99.90
5118;DHT22;2578;51.622;7.046;2023-09-19T03:17:34;14.60;99.90
5118;DHT22;2578;51.622;7.046;2023-09-19T03:19:59;14.60;99.90
5118;DHT22;2578;51.622;7.046;2023-09-19T03:22:26;14.60;99.90
5118;DHT22;2578;51.622;7.046;2023-09-19T03:24:52;14.70;99.90
5118;DHT22;2578;51.622;7.046;2023-09-19T03:27:18;14.60;99.90
5118;DHT22;2578;51.622;7.046;2023-09-19T03:29:44;14.60;99.90
5118;DHT22;2578;51.622;7.046;2023-09-19T03:34:37;14.60;99.90
5118;DHT22;2578;51.622;7.046;2023-09-19T03:37:07;14.50;99.90
5118;DHT22;2578;51.622;7.046;2023-09-19T03:39:32;14.50;99.90
5118;DHT22;2578;51.622;7.046;2023-09-19T03:41:58;14.40;99.90
5118;DHT22;2578;51.622;7.046;2023-09-19T03:44:24;14.40;99.90
5118;DHT22;2578;51.622;7.046;2023-09-19T03:46:49;14.30;99.90
5118;DHT22;2578;51.622;7.046;2023-09-19T03:49:15;14.30;99.90
5118;DHT22;2578;51.622;7.046;2023-09-19T03:51:41;14.30;99.90
5118;DHT22;2578;51.622;7.046;2023-09-19T03:54:07;14.30;99.90
5118;DHT22;2578;51.622;7.046;2023-09-19T03:56:33;14.30;99.90
5118;DHT22;2578;51.622;7.046;2023-09-19T03:58:58;14.30;99.90
5118;DHT22;2578;51.622;7.046;2023-09-19T04:01:24;14.30;99.90
5118;DHT22;2578;51.622;7.046;2023-09-19T04:03:49;14.20;99.90
5118;DHT22;2578;51.622;7.046;2023-09-19T04:06:17;14.30;99.90
5118;DHT22;2578;51.622;7.046;2023-09-19T04:08:43;14.20;99.90
5118;DHT22;2578;51.622;7.046;2023-09-19T04:11:10;14.20;99.90
5118;DHT22;2578;51.622;7.046;2023-09-19T04:13:36;14.30;99.90
5118;DHT22;2578;51.622;7.046;2023-09-19T04:16:02;14.30;99.90
5118;DHT22;2578;51.622;7.046;2023-09-19T04:18:32;14.40;99.90
5118;DHT22;2578;51.622;7.046;2023-09-19T04:20:59;14.40;99.90
5118;DHT22;2578;51.622;7.046;2023-09-19T04:23:28;15.70;99.90
5118;DHT22;2578;51.622;7.046;2023-09-19T04:25:53;14.40;99.90
5118;DHT22;2578;51.622;7.046;2023-09-19T04:28:19;14.50;99.90
5118;DHT22;2578;51.622;7.046;2023-09-19T04:30:45;14.50;99.90
5118;DHT22;2578;51.622;7.046;2023-09-19T04:33:10;14.60;99.90
5118;DHT22;2578;51.622;7.046;2023-09-19T04:35:37;14.50;99.90
5118;DHT22;2578;51.622;7.046;2023-09-19T04:40:32;14.40;99.90
5118;DHT22;2578;51.622;7.046;2023-09-19T04:42:59;14.40;99.90
5118;DHT22;2578;51.622;7.046;2023-09-19T04:45:26;14.40;99.90
5118;DHT22;2578;51.622;7.046;2023-09-19T04:47:52;14.40;99.90
5118;DHT22;2578;51.622;7.046;2023-09-19T04:50:18;14.30;99.90
5118;DHT22;2578;51.622;7.046;2023-09-19T04:52:45;14.40;99.90
5118;DHT22;2578;51.622;7.046;2023-09-19T04:55:14;14.40;99.90
5118;DHT22;2578;51.622;7.046;2023-09-19T04:57:49;14.50;99.90
5118;DHT22;2578;51.622;7.046;2023-09-19T05:00:17;14.50;99.90
5118;DHT22;2578;51.622;7.046;2023-09-19T05:02:44;14.50;99.90
5118;DHT22;2578;51.622;7.046;2023-09-19T05:05:10;15.50;99.90
5118;DHT22;2578;51.622;7.046;2023-09-19T05:07:38;14.40;99.90
5118;DHT22;2578;51.622;7.046;2023-09-19T05:10:04;14.40;99.90
5118;DHT22;2578;51.622;7.046;2023-09-19T05:12:32;14.40;99.90
5118;DHT22;2578;51.622;7.046;2023-09-19T05:14:58;14.40;99.90
5118;DHT22;2578;51.622;7.046;2023-09-19T05:17:23;14.40;99.90
5118;DHT22;2578;51.622;7.046;2023-09-19T05:19:50;14.40;99.90
5118;DHT22;2578;51.622;7.046;2023-09-19T05:22:15;14.60;99.90
5118;DHT22;2578;51.622;7.046;2023-09-19T05:24:41;14.50;99.90
5118;DHT22;2578;51.622;7.046;2023-09-19T05:27:06;14.60;99.90
5118;DHT22;2578;51.622;7.046;2023-09-19T05:31:59;14.60;99.90
5118;DHT22;2578;51.622;7.046;2023-09-19T05:34:24;14.50;99.90
5118;DHT22;2578;51.622;7.046;2023-09-19T05:36:53;14.60;99.90
5118;DHT22;2578;51.622;7.046;2023-09-19T05:39:19;14.60;99.90
5118;DHT22;2578;51.622;7.046;2023-09-19T05:41:45;14.60;99.90
5118;DHT22;2578;51.622;7.046;2023-09-19T05:44:13;14.60;99.90
5118;DHT22;2578;51.622;7.046;2023-09-19T05:46:39;14.70;99.90
5118;DHT22;2578;51.622;7.046;2023-09-19T05:49:05;14.80;99.90
5118;DHT22;2578;51.622;7.046;2023-09-19T05:51:31;14.90;99.90
5118;DHT22;2578;51.622;7.046;2023-09-19T05:53:56;14.90;99.90
5118;DHT22;2578;51.622;7.046;2023-09-19T05:56:23;14.90;99.90
5118;DHT22;2578;51.622;7.046;2023-09-19T05:58:48;14.90;99.90
5118;DHT22;2578;51.622;7.046;2023-09-19T06:01:15;15.00;99.90
5118;DHT22;2578;51.622;7.046;2023-09-19T06:03:40;15.00;99.90
5118;DHT22;2578;51.622;7.046;2023-09-19T06:06:06;15.00;99.90
5118;DHT22;2578;51.622;7.046;2023-09-19T06:08:32;15.10;99.90
5118;DHT22;2578;51.622;7.046;2023-09-19T06:10:59;15.10;99.90
5118;DHT22;2578;51.622;7.046;2023-09-19T06:13:25;15.20;99.90
5118;DHT22;2578;51.622;7.046;2023-09-19T06:15:52;15.20;99.90
5118;DHT22;2578;51.622;7.046;2023-09-19T06:18:17;15.20;99.90
5118;DHT22;2578;51.622;7.046;2023-09-19T06:20:47;14.70;99.90
5118;DHT22;2578;51.622;7.046;2023-09-19T06:23:13;15.20;99.90
5118;DHT22;2578;51.622;7.046;2023-09-19T06:25:38;15.30;99.90
5118;DHT22;2578;51.622;7.046;2023-09-19T06:28:04;15.30;99.90
5118;DHT22;2578;51.622;7.046;2023-09-19T06:30:31;15.30;99.90
5118;DHT22;2578;51.622;7.046;2023-09-19T06:32:58;15.30;99.90
5118;DHT22;2578;51.622;7.046;2023-09-19T06:35:26;15.40;99.90
5118;DHT22;2578;51.622;7.046;2023-09-19T06:37:52;15.40;99.90
5118;DHT22;2578;51.622;7.046;2023-09-19T06:40:18;15.60;99.90
5118;DHT22;2578;51.622;7.046;2023-09-19T06:42:45;15.50;99.90
5118;DHT22;2578;51.622;7.046;2023-09-19T06:45:14;15.50;99.90
5118;DHT22;2578;51.622;7.046;2023-09-19T06:47:44;15.50;99.90
5118;DHT22;2578;51.622;7.046;2023-09-19T06:50:11;15.50;99.90
5118;DHT22;2578;51.622;7.046;2023-09-19T06:52:43;15.50;99.90
5118;DHT22;2578;51.622;7.046;2023-09-19T06:55:09;15.50;99.90
5118;DHT22;2578;51.622;7.046;2023-09-19T06:57:39;15.50;99.90
5118;DHT22;2578;51.622;7.046;2023-09-19T07:00:06;15.50;99.90
5118;DHT22;2578;51.622;7.046;2023-09-19T07:03:00;15.50;99.90
5118;DHT22;2578;51.622;7.046;2023-09-19T07:05:33;15.50;99.90
5118;DHT22;2578;51.622;7.046;2023-09-19T07:08:01;15.60;99.90
5118;DHT22;2578;51.622;7.046;2023-09-19T07:10:27;15.60;99.90
5118;DHT22;2578;51.622;7.046;2023-09-19T07:13:00;15.70;99.90
5118;DHT22;2578;51.622;7.046;2023-09-19T07:15:29;15.80;99.90
5118;DHT22;2578;51.622;7.046;2023-09-19T07:17:56;15.90;99.90
5118;DHT22;2578;51.622;7.046;2023-09-19T07:20:23;15.90;99.90
5118;DHT22;2578;51.622;7.046;2023-09-19T07:22:52;15.90;99.90
5118;DHT22;2578;51.622;7.046;2023-09-19T07:25:18;16.00;99.90
5118;DHT22;2578;51.622;7.046;2023-09-19T07:27:44;15.90;99.90
5118;DHT22;2578;51.622;7.046;2023-09-19T07:30:10;15.90;99.90
5118;DHT22;2578;51.622;7.046;2023-09-19T07:32:37;16.10;99.90
5118;DHT22;2578;51.622;7.046;2023-09-19T07:35:04;16.20;99.90
5118;DHT22;2578;51.622;7.046;2023-09-19T07:37:34;16.60;99.90
5118;DHT22;2578;51.622;7.046;2023-09-19T07:40:00;16.40;99.90
5118;DHT22;2578;51.622;7.046;2023-09-19T07:42:33;16.50;99.90
5118;DHT22;2578;51.622;7.046;2023-09-19T07:45:01;16.60;99.90
5118;DHT22;2578;51.622;7.046;2023-09-19T07:47:26;16.50;99.90
5118;DHT22;2578;51.622;7.046;2023-09-19T07:49:53;16.50;99.90
5118;DHT22;2578;51.622;7.046;2023-09-19T07:52:19;16.60;99.90
5118;DHT22;2578;51.622;7.046;2023-09-19T07:54:47;16.60;99.90
5118;DHT22;2578;51.622;7.046;2023-09-19T07:57:15;16.60;99.90
5118;DHT22;2578;51.622;7.046;2023-09-19T07:59:41;16.60;99.90
5118;DHT22;2578;51.622;7.046;2023-09-19T08:02:08;16.80;99.90
5118;DHT22;2578;51.622;7.046;2023-09-19T08:04:44;16.80;99.90
5118;DHT22;2578;51.622;7.046;2023-09-19T08:07:12;16.80;99.90
5118;DHT22;2578;51.622;7.046;2023-09-19T08:09:38;16.90;99.90
5118;DHT22;2578;51.622;7.046;2023-09-19T08:12:05;16.80;99.90
5118;DHT22;2578;51.622;7.046;2023-09-19T08:14:33;16.80;99.90
5118;DHT22;2578;51.622;7.046;2023-09-19T08:16:59;17.20;99.90
5118;DHT22;2578;51.622;7.046;2023-09-19T08:19:26;17.30;99.90
5118;DHT22;2578;51.622;7.046;2023-09-19T08:21:56;15.80;99.90
5118;DHT22;2578;51.622;7.046;2023-09-19T08:24:28;17.40;99.90
5118;DHT22;2578;51.622;7.046;2023-09-19T08:26:55;17.40;99.90
5118;DHT22;2578;51.622;7.046;2023-09-19T08:29:22;17.30;99.90
5118;DHT22;2578;51.622;7.046;2023-09-19T08:31:54;17.50;99.90
5118;DHT22;2578;51.622;7.046;2023-09-19T08:34:19;17.30;99.90
5118;DHT22;2578;51.622;7.046;2023-09-19T08:36:46;17.60;99.90
5118;DHT22;2578;51.622;7.046;2023-09-19T08:39:13;17.70;99.90
5118;DHT22;2578;51.622;7.046;2023-09-19T08:41:39;17.80;99.90
5118;DHT22;2578;51.622;7.046;2023-09-19T08:44:05;18.00;99.90
5118;DHT22;2578;51.622;7.046;2023-09-19T08:46:33;18.10;99.90
5118;DHT22;2578;51.622;7.046;2023-09-19T08:49:05;18.40;99.90
5118;DHT22;2578;51.622;7.046;2023-09-19T08:51:44;18.70;99.90
5118;DHT22;2578;51.622;7.046;2023-09-19T08:54:22;18.70;99.90
5118;DHT22;2578;51.622;7.046;2023-09-19T08:56:54;18.40;99.90
5118;DHT22;2578;51.622;7.046;2023-09-19T08:59:22;18.40;99.90
5118;DHT22;2578;51.622;7.046;2023-09-19T09:01:53;18.30;99.90
5118;DHT22;2578;51.622;7.046;2023-09-19T09:04:20;18.40;99.90
5118;DHT22;2578;51.622;7.046;2023-09-19T09:06:49;18.60;99.90
5118;DHT22;2578;51.622;7.046;2023-09-19T09:09:17;18.60;99.90
5118;DHT22;2578;51.622;7.046;2023-09-19T09:11:42;18.90;98.00
5118;DHT22;2578;51.622;7.046;2023-09-19T09:14:08;18.90;87.40
5118;DHT22;2578;51.622;7.046;2023-09-19T09:16:34;19.20;25.20
5118;DHT22;2578;51.622;7.046;2023-09-19T09:19:00;19.20;33.50
5118;DHT22;2578;51.622;7.046;2023-09-19T09:21:27;19.00;56.80
5118;DHT22;2578;51.622;7.046;2023-09-19T09:23:53;19.20;36.30
5118;DHT22;2578;51.622;7.046;2023-09-19T09:26:51;19.00;55.00
5118;DHT22;2578;51.622;7.046;2023-09-19T09:29:44;19.00;81.20
5118;DHT22;2578;51.622;7.046;2023-09-19T09:34:44;19.60;15.40
5118;DHT22;2578;51.622;7.046;2023-09-19T09:37:14;19.70;17.00
5118;DHT22;2578;51.622;7.046;2023-09-19T09:40:01;19.60;1.00
5118;DHT22;2578;51.622;7.046;2023-09-19T09:42:45;19.50;1.00
5118;DHT22;2578;51.622;7.046;2023-09-19T09:45:18;19.30;18.80
5118;DHT22;2578;51.622;7.046;2023-09-19T09:47:53;18.80;1.00
5118;DHT22;2578;51.622;7.046;2023-09-19T09:50:28;18.80;3.50
5118;DHT22;2578;51.622;7.046;2023-09-19T09:53:24;19.20;26.70
5118;DHT22;2578;51.622;7.046;2023-09-19T09:56:05;19.20;1.00
5118;DHT22;2578;51.622;7.046;2023-09-19T09:58:51;19.80;12.40
5118;DHT22;2578;51.622;7.046;2023-09-19T10:01:21;20.10;1.00
5118;DHT22;2578;51.622;7.046;2023-09-19T10:03:57;20.10;1.00
5118;DHT22;2578;51.622;7.046;2023-09-19T10:06:23;19.90;1.00
5118;DHT22;2578;51.622;7.046;2023-09-19T10:09:06;20.50;1.00
5118;DHT22;2578;51.622;7.046;2023-09-19T10:12:06;20.50;1.00
5118;DHT22;2578;51.622;7.046;2023-09-19T10:14:37;20.20;1.00
5118;DHT22;2578;51.622;7.046;2023-09-19T10:17:05;19.50;1.00
5118;DHT22;2578;51.622;7.046;2023-09-19T10:22:13;19.80;1.00
5118;DHT22;2578;51.622;7.046;2023-09-19T10:24:47;20.10;1.00
5118;DHT22;2578;51.622;7.046;2023-09-19T10:27:15;19.90;1.00
5118;DHT22;2578;51.622;7.046;2023-09-19T10:29:44;19.90;1.00
5118;DHT22;2578;51.622;7.046;2023-09-19T10:32:14;20.30;1.00
5118;DHT22;2578;51.622;7.046;2023-09-19T10:34:48;20.30;1.00
5118;DHT22;2578;51.622;7.046;2023-09-19T10:37:16;20.80;1.00
5118;DHT22;2578;51.622;7.046;2023-09-19T10:39:46;20.80;1.00
5118;DHT22;2578;51.622;7.046;2023-09-19T10:42:16;20.40;1.00
5118;DHT22;2578;51.622;7.046;2023-09-19T10:44:45;21.10;1.00
5118;DHT22;2578;51.622;7.046;2023-09-19T10:47:12;21.10;1.00
5118;DHT22;2578;51.622;7.046;2023-09-19T10:49:46;21.10;1.00
5118;DHT22;2578;51.622;7.046;2023-09-19T10:52:14;21.50;1.00
5118;DHT22;2578;51.622;7.046;2023-09-19T10:54:47;21.80;1.00
5118;DHT22;2578;51.622;7.046;2023-09-19T10:57:21;21.70;1.00
5118;DHT22;2578;51.622;7.046;2023-09-19T11:05:37;22.00;1.00
5118;DHT22;2578;51.622;7.046;2023-09-19T11:08:07;21.00;1.00
5118;DHT22;2578;51.622;7.046;2023-09-19T11:10:49;20.50;1.00
5118;DHT22;2578;51.622;7.046;2023-09-19T11:13:29;20.50;1.00
5118;DHT22;2578;51.622;7.046;2023-09-19T11:27:09;19.90;1.00
5118;DHT22;2578;51.622;7.046;2023-09-19T11:29:36;20.10;1.00
5118;DHT22;2578;51.622;7.046;2023-09-19T11:32:03;20.70;1.00
5118;DHT22;2578;51.622;7.046;2023-09-19T11:34:39;21.70;1.00
5118;DHT22;2578;51.622;7.046;2023-09-19T11:39:40;22.20;1.00
5118;DHT22;2578;51.622;7.046;2023-09-19T11:45:06;21.80;1.00
5118;DHT22;2578;51.622;7.046;2023-09-19T11:47:32;21.70;1.00
5118;DHT22;2578;51.622;7.046;2023-09-19T11:50:01;21.80;1.00
5118;DHT22;2578;51.622;7.046;2023-09-19T11:52:28;22.00;1.00
5118;DHT22;2578;51.622;7.046;2023-09-19T11:55:01;22.00;1.00
5118;DHT22;2578;51.622;7.046;2023-09-19T11:57:28;21.80;1.00
5118;DHT22;2578;51.622;7.046;2023-09-19T11:59:55;21.50;1.00
5118;DHT22;2578;51.622;7.046;2023-09-19T12:02:39;21.40;1.00
5118;DHT22;2578;51.622;7.046;2023-09-19T12:05:08;21.60;1.00
5118;DHT22;2578;51.622;7.046;2023-09-19T12:07:43;21.60;1.00
5118;DHT22;2578;51.622;7.046;2023-09-19T12:10:13;21.60;1.00
5118;DHT22;2578;51.622;7.046;2023-09-19T12:12:47;21.80;1.00
5118;DHT22;2578;51.622;7.046;2023-09-19T12:15:14;22.10;1.00
5118;DHT22;2578;51.622;7.046;2023-09-19T12:17:41;22.00;1.00
5118;DHT22;2578;51.622;7.046;2023-09-19T12:20:10;22.10;1.00
5118;DHT22;2578;51.622;7.046;2023-09-19T12:22:44;22.20;1.00
5118;DHT22;2578;51.622;7.046;2023-09-19T12:25:10;22.40;1.00
5118;DHT22;2578;51.622;7.046;2023-09-19T12:27:47;22.90;1.00
5118;DHT22;2578;51.622;7.046;2023-09-19T12:30:16;22.90;1.00
5118;DHT22;2578;51.622;7.046;2023-09-19T12:32:44;22.40;1.00
5118;DHT22;2578;51.622;7.046;2023-09-19T12:35:33;22.60;1.00
5118;DHT22;2578;51.622;7.046;2023-09-19T12:38:02;23.10;1.00
5118;DHT22;2578;51.622;7.046;2023-09-19T12:40:29;22.80;1.00
5118;DHT22;2578;51.622;7.046;2023-09-19T12:42:59;22.70;1.00
5118;DHT22;2578;51.622;7.046;2023-09-19T12:45:25;23.00;1.00
5118;DHT22;2578;51.622;7.046;2023-09-19T12:48:23;23.40;1.00
5118;DHT22;2578;51.622;7.046;2023-09-19T12:51:10;23.50;1.00
5118;DHT22;2578;51.622;7.046;2023-09-19T12:56:12;23.00;1.00
5118;DHT22;2578;51.622;7.046;2023-09-19T12:58:56;23.20;1.00
5118;DHT22;2578;51.622;7.046;2023-09-19T13:01:26;23.80;1.00
5118;DHT22;2578;51.622;7.046;2023-09-19T13:06:52;23.30;1.00
5118;DHT22;2578;51.622;7.046;2023-09-19T13:09:22;23.10;1.00
5118;DHT22;2578;51.622;7.046;2023-09-19T13:11:50;23.00;1.00
5118;DHT22;2578;51.622;7.046;2023-09-19T13:19:49;23.10;1.00
5118;DHT22;2578;51.622;7.046;2023-09-19T13:22:37;22.60;1.00
5118;DHT22;2578;51.622;7.046;2023-09-19T13:25:17;22.30;1.00
5118;DHT22;2578;51.622;7.046;2023-09-19T13:27:54;22.70;1.00
5118;DHT22;2578;51.622;7.046;2023-09-19T13:30:22;22.90;1.00
5118;DHT22;2578;51.622;7.046;2023-09-19T13:32:48;23.10;1.00
5118;DHT22;2578;51.622;7.046;2023-09-19T13:35:15;23.30;1.00
5118;DHT22;2578;51.622;7.046;2023-09-19T13:37:41;22.70;1.00
5118;DHT22;2578;51.622;7.046;2023-09-19T13:42:34;22.80;1.00
5118;DHT22;2578;51.622;7.046;2023-09-19T13:45:00;22.70;1.00
5118;DHT22;2578;51.622;7.046;2023-09-19T13:47:25;21.50;1.00
5118;DHT22;2578;51.622;7.046;2023-09-19T13:49:52;21.40;1.00
5118;DHT22;2578;51.622;7.046;2023-09-19T13:52:19;21.30;1.00
5118;DHT22;2578;51.622;7.046;2023-09-19T13:54:45;21.10;1.00
5118;DHT22;2578;51.622;7.046;2023-09-19T13:57:11;20.60;1.00
5118;DHT22;2578;51.622;7.046;2023-09-19T13:59:36;20.60;1.00
5118;DHT22;2578;51.622;7.046;2023-09-19T14:02:02;20.60;1.00
5118;DHT22;2578;51.622;7.046;2023-09-19T14:04:31;20.70;1.00
5118;DHT22;2578;51.622;7.046;2023-09-19T14:06:57;20.70;1.00
5118;DHT22;2578;51.622;7.046;2023-09-19T14:09:24;20.70;1.00
5118;DHT22;2578;51.622;7.046;2023-09-19T14:11:50;20.60;1.00
5118;DHT22;2578;51.622;7.046;2023-09-19T14:14:18;20.40;1.00
5118;DHT22;2578;51.622;7.046;2023-09-19T14:16:44;20.30;1.00
5118;DHT22;2578;51.622;7.046;2023-09-19T14:19:09;20.20;1.00
5118;DHT22;2578;51.622;7.046;2023-09-19T14:21:35;20.10;1.00
5118;DHT22;2578;51.622;7.046;2023-09-19T14:24:02;20.20;1.00
5118;DHT22;2578;51.622;7.046;2023-09-19T14:26:28;20.20;1.00
5118;DHT22;2578;51.622;7.046;2023-09-19T14:28:54;20.20;1.00
5118;DHT22;2578;51.622;7.046;2023-09-19T14:31:20;20.10;1.00
5118;DHT22;2578;51.622;7.046;2023-09-19T14:33:46;20.30;1.00
5118;DHT22;2578;51.622;7.046;2023-09-19T14:36:18;19.90;1.00
5118;DHT22;2578;51.622;7.046;2023-09-19T14:38:44;19.90;1.00
5118;DHT22;2578;51.622;7.046;2023-09-19T14:41:10;19.90;1.00
5118;DHT22;2578;51.622;7.046;2023-09-19T14:43:35;19.90;1.00
5118;DHT22;2578;51.622;7.046;2023-09-19T14:48:30;20.00;1.00
5118;DHT22;2578;51.622;7.046;2023-09-19T14:51:04;20.00;1.00
5118;DHT22;2578;51.622;7.046;2023-09-19T14:53:31;19.90;1.00
5118;DHT22;2578;51.622;7.046;2023-09-19T14:56:00;20.00;1.00
5118;DHT22;2578;51.622;7.046;2023-09-19T14:58:27;20.00;1.00
5118;DHT22;2578;51.622;7.046;2023-09-19T15:01:05;20.00;1.00
5118;DHT22;2578;51.622;7.046;2023-09-19T15:03:32;20.00;1.00
5118;DHT22;2578;51.622;7.046;2023-09-19T15:06:04;20.10;1.00
5118;DHT22;2578;51.622;7.046;2023-09-19T15:08:31;20.10;1.00
5118;DHT22;2578;51.622;7.046;2023-09-19T15:10:59;20.00;1.00
5118;DHT22;2578;51.622;7.046;2023-09-19T15:13:32;19.90;1.00
5118;DHT22;2578;51.622;7.046;2023-09-19T15:16:08;19.90;1.00
5118;DHT22;2578;51.622;7.046;2023-09-19T15:18:38;20.10;1.00
5118;DHT22;2578;51.622;7.046;2023-09-19T15:21:09;20.30;1.00
5118;DHT22;2578;51.622;7.046;2023-09-19T15:23:37;20.30;1.00
5118;DHT22;2578;51.622;7.046;2023-09-19T15:26:07;20.60;1.00
5118;DHT22;2578;51.622;7.046;2023-09-19T15:28:34;20.50;1.00
5118;DHT22;2578;51.622;7.046;2023-09-19T15:31:10;20.30;1.00
5118;DHT22;2578;51.622;7.046;2023-09-19T15:33:36;20.40;1.00
5118;DHT22;2578;51.622;7.046;2023-09-19T15:36:05;20.50;1.00
5118;DHT22;2578;51.622;7.046;2023-09-19T15:41:13;20.40;1.00
5118;DHT22;2578;51.622;7.046;2023-09-19T15:43:39;20.50;1.00
5118;DHT22;2578;51.622;7.046;2023-09-19T15:46:04;20.40;1.00
5118;DHT22;2578;51.622;7.046;2023-09-19T15:48:30;20.10;1.00
5118;DHT22;2578;51.622;7.046;2023-09-19T15:50:55;20.20;1.00
5118;DHT22;2578;51.622;7.046;2023-09-19T15:53:21;20.10;1.00
5118;DHT22;2578;51.622;7.046;2023-09-19T15:55:47;20.00;1.00
5118;DHT22;2578;51.622;7.046;2023-09-19T15:58:12;20.00;1.00
5118;DHT22;2578;51.622;7.046;2023-09-19T16:00:40;19.80;1.00
5118;DHT22;2578;51.622;7.046;2023-09-19T16:03:05;19.80;1.00
5118;DHT22;2578;51.622;7.046;2023-09-19T16:05:37;19.70;1.00
5118;DHT22;2578;51.622;7.046;2023-09-19T16:08:05;19.60;1.00
5118;DHT22;2578;51.622;7.046;2023-09-19T16:10:35;19.70;1.00
5118;DHT22;2578;51.622;7.046;2023-09-19T16:13:02;19.70;1.00
5118;DHT22;2578;51.622;7.046;2023-09-19T16:15:28;19.60;1.00
5118;DHT22;2578;51.622;7.046;2023-09-19T16:17:54;19.60;1.00
5118;DHT22;2578;51.622;7.046;2023-09-19T16:20:20;19.60;1.00
5118;DHT22;2578;51.622;7.046;2023-09-19T16:22:48;19.60;1.00
5118;DHT22;2578;51.622;7.046;2023-09-19T16:25:14;19.60;1.00
5118;DHT22;2578;51.622;7.046;2023-09-19T16:27:39;19.50;1.00
5118;DHT22;2578;51.622;7.046;2023-09-19T16:30:06;19.50;1.00
5118;DHT22;2578;51.622;7.046;2023-09-19T16:32:35;19.40;1.00
5118;DHT22;2578;51.622;7.046;2023-09-19T16:35:01;19.50;1.00
5118;DHT22;2578;51.622;7.046;2023-09-19T16:37:28;19.40;1.00
5118;DHT22;2578;51.622;7.046;2023-09-19T16:39:53;19.40;1.00
5118;DHT22;2578;51.622;7.046;2023-09-19T16:42:19;19.40;1.00
5118;DHT22;2578;51.622;7.046;2023-09-19T16:44:44;19.40;1.00
5118;DHT22;2578;51.622;7.046;2023-09-19T16:47:10;19.30;1.00
5118;DHT22;2578;51.622;7.046;2023-09-19T16:49:35;19.20;1.00
5118;DHT22;2578;51.622;7.046;2023-09-19T16:52:01;19.20;1.00
5118;DHT22;2578;51.622;7.046;2023-09-19T16:54:27;19.20;1.00
5118;DHT22;2578;51.622;7.046;2023-09-19T16:56:52;19.10;1.00
5118;DHT22;2578;51.622;7.046;2023-09-19T16:59:18;19.10;1.00
5118;DHT22;2578;51.622;7.046;2023-09-19T17:01:45;19.10;1.00
5118;DHT22;2578;51.622;7.046;2023-09-19T17:04:13;19.10;1.00
5118;DHT22;2578;51.622;7.046;2023-09-19T17:06:39;19.10;1.00
5118;DHT22;2578;51.622;7.046;2023-09-19T17:09:04;19.00;1.00
5118;DHT22;2578;51.622;7.046;2023-09-19T17:11:31;19.00;1.00
5118;DHT22;2578;51.622;7.046;2023-09-19T17:13:56;19.10;1.00
5118;DHT22;2578;51.622;7.046;2023-09-19T17:16:22;19.00;1.00
5118;DHT22;2578;51.622;7.046;2023-09-19T17:18:53;18.90;1.00
5118;DHT22;2578;51.622;7.046;2023-09-19T17:21:18;19.00;1.00
5118;DHT22;2578;51.622;7.046;2023-09-19T17:23:44;19.00;1.00
5118;DHT22;2578;51.622;7.046;2023-09-19T17:26:12;19.00;1.00
5118;DHT22;2578;51.622;7.046;2023-09-19T17:28:43;19.00;1.00
5118;DHT22;2578;51.622;7.046;2023-09-19T17:31:16;18.90;1.00
5118;DHT22;2578;51.622;7.046;2023-09-19T17:33:43;18.90;1.00
5118;DHT22;2578;51.622;7.046;2023-09-19T17:36:36;19.00;1.00